Terminal Aerodrome Forecast
Issued by NWS

Home | Current Version | Previous Version | Text Only | Print | Product List | Glossary On
Versions: 1 2 3 4 5 6 7 8 9 10 11 12 13 14 15 16 17 18 19 20 21 22 23 24 25 26 27 28 29 30 31 32
000
FTUS46 KOTX 211739
TAFSFF
TAF
KSFF 211739Z 2118/2218 15004KT P6SM FEW050 SCT100
     FM212300 13004KT P6SM VCTS SCT060CB BKN090
     FM220400 VRB03KT P6SM FEW050 BKN100
     FM220700 VRB03KT P6SM -SHRA VCTS FEW040 SCT070CB OVC120
     FM221200 05005KT P6SM VCSH SCT050 BKN080=

USA.gov is the U.S. government's official web portal to all federal, state and local government web resources and services.